Decoded Metar for KGAF ( in ) (IATA:) | Meteo·Mobile Aviation Weather
aviador You're here:

KGAF Decoded Metar

in
Report Time2019-06-18 14:35:00
UTC Time2019-06-18 14:40:06
Flight Rules vfr VFR
WindCalm
Visibility9999 m
Phenomena:N/A
Clouds:N/A
Expected CloudBase > 2,800 ft AGL from Temp-Dew spread
CeilingNone
Temp18°C
Dew Point11°C (64% RH)
QNH1018 hPa
Raw Report
KGAF 181435Z AUTO 00000KT 10SM CLR 18/11 A3006 RMK AO2 PWINO=

Extra information for KGAF:More info

Social comments